Startpagina
METAR-TAF:

METAR-TAF

Vliegvelden :

Larnaca, Cyprus

Luchthaven Larnaca

breedte: 34-53N, lengte: 033-38E, hoogte: 2 m

Actueel weer

Dit bericht is 23 minuten geleden gemaakt, om 00:00 UTC
Wind 1 kt uit het westzuidwesten
Temperatuur 23°C
Vochtigheid 100%
Druk 1007 hPa
Zicht: 6000 m

METAR: LCLK 280000Z 24001KT 6000 NSC 23/23 Q1007 NOSIG

Tijdstip: 03:23 (00:23 UTC)

Verwachting

Dit bericht is 53 minuten geleden gemaakt, om 23:30 UTC
Verwachting geldig van 28 om 00 UTC tot 28 om 24 UTC
Wind 6 kt uit het noordwesten
Zicht 10 km of meer
Weinig wolken op 2500 ft
Kans 40%
van 28 om 00 UTC tot 28 om 05 UTC
Zicht: 5000 m
Gebroken wolken op 500 ft
nevel
Wijzigt naar
van 28 om 09 UTC tot 28 om 12 UTC
Wind 15 kt uit het zuidzuidwesten
Wijzigt naar
van 28 om 19 UTC tot 28 om 22 UTC
Wind 6 kt uit het noordwesten

TAF: LCLK 272330Z 2800/2824 32006KT 9999 FEW025 PROB40 2800/2805 5000 BR BKN005 BECMG 2809/2812 21015KT BECMG 2819/2822 32006KT

Waarnemingen en weersverwachtingen van meer dan 4000 vliegvelden (METAR en TAF).

De beschikbare stations zijn de gele en rode punten op de kaart.

Ga met uw muis naar het station om de naam te zien.

Klik dan om waarnemingen en weersverwachtingen te zien.

kaart wijzigen: klik op de groene knoppen met een zwart kruis om in te zoomen, op de groene knop met een streepje om uit te zoomen of op de groene pijlen voor aangrenzende kaarten.


METAR-TAF: